sensor_id;sensor_type;location;lat;lon;timestamp;temperature;humidity
57566;DHT22;63999;43.882;-0.310;2024-02-23T00:01:54;10.10;89.00
57566;DHT22;63999;43.882;-0.310;2024-02-23T00:04:21;10.10;89.00
57566;DHT22;63999;43.882;-0.310;2024-02-23T00:06:48;10.20;89.20
57566;DHT22;63999;43.882;-0.310;2024-02-23T00:09:16;10.20;89.00
57566;DHT22;63999;43.882;-0.310;2024-02-23T00:11:43;10.20;89.20
57566;DHT22;63999;43.882;-0.310;2024-02-23T00:14:15;10.20;89.10
57566;DHT22;63999;43.882;-0.310;2024-02-23T00:16:45;10.20;89.10
57566;DHT22;63999;43.882;-0.310;2024-02-23T00:19:13;10.20;89.10
57566;DHT22;63999;43.882;-0.310;2024-02-23T00:21:40;10.20;89.20
57566;DHT22;63999;43.882;-0.310;2024-02-23T00:24:09;10.20;89.20
57566;DHT22;63999;43.882;-0.310;2024-02-23T00:26:38;10.20;89.10
57566;DHT22;63999;43.882;-0.310;2024-02-23T00:29:05;10.10;88.80
57566;DHT22;63999;43.882;-0.310;2024-02-23T00:31:32;10.10;88.70
57566;DHT22;63999;43.882;-0.310;2024-02-23T00:33:59;10.10;88.80
57566;DHT22;63999;43.882;-0.310;2024-02-23T00:36:29;10.10;89.00
57566;DHT22;63999;43.882;-0.310;2024-02-23T00:38:56;10.00;88.90
57566;DHT22;63999;43.882;-0.310;2024-02-23T00:41:24;10.00;88.80
57566;DHT22;63999;43.882;-0.310;2024-02-23T00:43:51;10.00;88.70
57566;DHT22;63999;43.882;-0.310;2024-02-23T00:46:18;10.00;88.30
57566;DHT22;63999;43.882;-0.310;2024-02-23T00:48:46;10.00;88.90
57566;DHT22;63999;43.882;-0.310;2024-02-23T00:51:13;10.00;89.30
57566;DHT22;63999;43.882;-0.310;2024-02-23T00:53:40;10.00;89.20
57566;DHT22;63999;43.882;-0.310;2024-02-23T00:56:07;10.10;89.60
57566;DHT22;63999;43.882;-0.310;2024-02-23T00:58:34;10.10;89.70
57566;DHT22;63999;43.882;-0.310;2024-02-23T01:01:02;10.10;89.60
57566;DHT22;63999;43.882;-0.310;2024-02-23T01:03:29;10.20;89.70
57566;DHT22;63999;43.882;-0.310;2024-02-23T01:05:56;10.20;89.60
57566;DHT22;63999;43.882;-0.310;2024-02-23T01:08:23;10.20;89.60
57566;DHT22;63999;43.882;-0.310;2024-02-23T01:10:51;10.20;90.00
57566;DHT22;63999;43.882;-0.310;2024-02-23T01:13:18;10.20;89.80
57566;DHT22;63999;43.882;-0.310;2024-02-23T01:15:46;10.20;89.70
57566;DHT22;63999;43.882;-0.310;2024-02-23T01:18:13;10.20;90.00
57566;DHT22;63999;43.882;-0.310;2024-02-23T01:20:41;10.20;90.00
57566;DHT22;63999;43.882;-0.310;2024-02-23T01:23:08;10.20;89.90
57566;DHT22;63999;43.882;-0.310;2024-02-23T01:25:35;10.20;89.70
57566;DHT22;63999;43.882;-0.310;2024-02-23T01:28:03;10.20;89.70
57566;DHT22;63999;43.882;-0.310;2024-02-23T01:30:30;10.10;89.50
57566;DHT22;63999;43.882;-0.310;2024-02-23T01:32:58;10.10;89.50
57566;DHT22;63999;43.882;-0.310;2024-02-23T01:35:25;10.10;89.50
57566;DHT22;63999;43.882;-0.310;2024-02-23T01:37:53;10.00;89.70
57566;DHT22;63999;43.882;-0.310;2024-02-23T01:40:20;10.10;89.50
57566;DHT22;63999;43.882;-0.310;2024-02-23T01:42:47;10.00;89.60
57566;DHT22;63999;43.882;-0.310;2024-02-23T01:45:14;10.00;89.50
57566;DHT22;63999;43.882;-0.310;2024-02-23T01:47:43;10.00;89.70
57566;DHT22;63999;43.882;-0.310;2024-02-23T01:50:10;10.00;89.40
57566;DHT22;63999;43.882;-0.310;2024-02-23T01:52:39;10.00;89.60
57566;DHT22;63999;43.882;-0.310;2024-02-23T01:55:07;10.00;89.70
57566;DHT22;63999;43.882;-0.310;2024-02-23T01:57:35;10.00;89.50
57566;DHT22;63999;43.882;-0.310;2024-02-23T02:00:17;10.00;89.50
57566;DHT22;63999;43.882;-0.310;2024-02-23T02:02:47;10.00;89.30
57566;DHT22;63999;43.882;-0.310;2024-02-23T02:05:14;9.90;89.30
57566;DHT22;63999;43.882;-0.310;2024-02-23T02:07:42;9.90;89.50
57566;DHT22;63999;43.882;-0.310;2024-02-23T02:10:10;9.90;89.40
57566;DHT22;63999;43.882;-0.310;2024-02-23T02:12:38;9.90;89.40
57566;DHT22;63999;43.882;-0.310;2024-02-23T02:15:06;9.90;89.60
57566;DHT22;63999;43.882;-0.310;2024-02-23T02:17:34;9.90;89.70
57566;DHT22;63999;43.882;-0.310;2024-02-23T02:20:05;10.00;89.60
57566;DHT22;63999;43.882;-0.310;2024-02-23T02:22:33;9.90;89.30
57566;DHT22;63999;43.882;-0.310;2024-02-23T02:25:00;9.80;89.30
57566;DHT22;63999;43.882;-0.310;2024-02-23T02:27:28;9.80;89.10
57566;DHT22;63999;43.882;-0.310;2024-02-23T02:29:55;9.70;89.40
57566;DHT22;63999;43.882;-0.310;2024-02-23T02:32:23;9.80;89.30
57566;DHT22;63999;43.882;-0.310;2024-02-23T02:34:54;9.80;89.30
57566;DHT22;63999;43.882;-0.310;2024-02-23T02:37:21;9.70;89.20
57566;DHT22;63999;43.882;-0.310;2024-02-23T02:39:48;9.70;88.80
57566;DHT22;63999;43.882;-0.310;2024-02-23T02:42:16;9.50;88.60
57566;DHT22;63999;43.882;-0.310;2024-02-23T02:44:43;9.50;88.40
57566;DHT22;63999;43.882;-0.310;2024-02-23T02:47:10;9.40;88.40
57566;DHT22;63999;43.882;-0.310;2024-02-23T02:49:39;9.40;88.70
57566;DHT22;63999;43.882;-0.310;2024-02-23T02:52:07;9.40;88.60
57566;DHT22;63999;43.882;-0.310;2024-02-23T02:54:35;9.40;88.30
57566;DHT22;63999;43.882;-0.310;2024-02-23T02:57:03;9.30;88.60
57566;DHT22;63999;43.882;-0.310;2024-02-23T02:59:34;9.40;88.70
57566;DHT22;63999;43.882;-0.310;2024-02-23T03:02:02;9.40;88.80
57566;DHT22;63999;43.882;-0.310;2024-02-23T03:04:29;9.40;88.80
57566;DHT22;63999;43.882;-0.310;2024-02-23T03:06:56;9.40;89.20
57566;DHT22;63999;43.882;-0.310;2024-02-23T03:09:23;9.40;88.70
57566;DHT22;63999;43.882;-0.310;2024-02-23T03:11:51;9.40;88.70
57566;DHT22;63999;43.882;-0.310;2024-02-23T03:14:19;9.40;89.30
57566;DHT22;63999;43.882;-0.310;2024-02-23T03:16:49;9.50;88.90
57566;DHT22;63999;43.882;-0.310;2024-02-23T03:19:16;9.40;88.60
57566;DHT22;63999;43.882;-0.310;2024-02-23T03:21:43;9.40;89.00
57566;DHT22;63999;43.882;-0.310;2024-02-23T03:24:10;9.40;88.90
57566;DHT22;63999;43.882;-0.310;2024-02-23T03:26:37;9.40;88.70
57566;DHT22;63999;43.882;-0.310;2024-02-23T03:29:05;9.40;88.80
57566;DHT22;63999;43.882;-0.310;2024-02-23T03:31:33;9.40;88.70
57566;DHT22;63999;43.882;-0.310;2024-02-23T03:34:02;9.40;88.70
57566;DHT22;63999;43.882;-0.310;2024-02-23T03:36:29;9.40;89.00
57566;DHT22;63999;43.882;-0.310;2024-02-23T03:38:57;9.40;88.80
57566;DHT22;63999;43.882;-0.310;2024-02-23T03:41:24;9.40;89.00
57566;DHT22;63999;43.882;-0.310;2024-02-23T03:43:51;9.40;89.00
57566;DHT22;63999;43.882;-0.310;2024-02-23T03:46:19;9.40;88.80
57566;DHT22;63999;43.882;-0.310;2024-02-23T03:48:47;9.40;88.90
57566;DHT22;63999;43.882;-0.310;2024-02-23T03:51:14;9.40;88.70
57566;DHT22;63999;43.882;-0.310;2024-02-23T03:53:42;9.40;88.90
57566;DHT22;63999;43.882;-0.310;2024-02-23T03:56:09;9.40;89.40
57566;DHT22;63999;43.882;-0.310;2024-02-23T03:58:36;9.40;89.40
57566;DHT22;63999;43.882;-0.310;2024-02-23T04:01:04;9.40;89.20
57566;DHT22;63999;43.882;-0.310;2024-02-23T04:03:31;9.40;89.40
57566;DHT22;63999;43.882;-0.310;2024-02-23T04:05:58;9.40;89.30
57566;DHT22;63999;43.882;-0.310;2024-02-23T04:08:26;9.40;89.00
57566;DHT22;63999;43.882;-0.310;2024-02-23T04:10:53;9.40;89.20
57566;DHT22;63999;43.882;-0.310;2024-02-23T04:13:20;9.40;89.20
57566;DHT22;63999;43.882;-0.310;2024-02-23T04:15:48;9.40;89.20
57566;DHT22;63999;43.882;-0.310;2024-02-23T04:18:16;9.40;89.20
57566;DHT22;63999;43.882;-0.310;2024-02-23T04:20:43;9.40;89.20
57566;DHT22;63999;43.882;-0.310;2024-02-23T04:23:10;9.40;89.20
57566;DHT22;63999;43.882;-0.310;2024-02-23T04:25:37;9.40;89.00
57566;DHT22;63999;43.882;-0.310;2024-02-23T04:28:05;9.30;88.70
57566;DHT22;63999;43.882;-0.310;2024-02-23T04:30:32;9.20;88.80
57566;DHT22;63999;43.882;-0.310;2024-02-23T04:32:59;9.20;89.30
57566;DHT22;63999;43.882;-0.310;2024-02-23T04:35:26;9.20;89.30
57566;DHT22;63999;43.882;-0.310;2024-02-23T04:37:53;9.20;89.20
57566;DHT22;63999;43.882;-0.310;2024-02-23T04:40:21;9.30;89.50
57566;DHT22;63999;43.882;-0.310;2024-02-23T04:42:48;9.30;89.50
57566;DHT22;63999;43.882;-0.310;2024-02-23T04:45:15;9.40;89.50
57566;DHT22;63999;43.882;-0.310;2024-02-23T04:47:42;9.40;89.50
57566;DHT22;63999;43.882;-0.310;2024-02-23T04:50:10;9.40;90.20
57566;DHT22;63999;43.882;-0.310;2024-02-23T04:52:37;9.40;90.00
57566;DHT22;63999;43.882;-0.310;2024-02-23T04:55:04;9.40;90.00
57566;DHT22;63999;43.882;-0.310;2024-02-23T04:57:32;9.40;89.90
57566;DHT22;63999;43.882;-0.310;2024-02-23T04:59:59;9.40;89.90
57566;DHT22;63999;43.882;-0.310;2024-02-23T05:02:26;9.40;89.60
57566;DHT22;63999;43.882;-0.310;2024-02-23T05:04:56;9.40;89.50
57566;DHT22;63999;43.882;-0.310;2024-02-23T05:07:24;9.40;89.80
57566;DHT22;63999;43.882;-0.310;2024-02-23T05:09:51;9.40;89.50
57566;DHT22;63999;43.882;-0.310;2024-02-23T05:12:18;9.30;89.40
57566;DHT22;63999;43.882;-0.310;2024-02-23T05:14:45;9.30;90.00
57566;DHT22;63999;43.882;-0.310;2024-02-23T05:17:13;9.40;89.80
57566;DHT22;63999;43.882;-0.310;2024-02-23T05:19:40;9.40;89.70
57566;DHT22;63999;43.882;-0.310;2024-02-23T05:22:08;9.30;89.70
57566;DHT22;63999;43.882;-0.310;2024-02-23T05:24:35;9.20;89.40
57566;DHT22;63999;43.882;-0.310;2024-02-23T05:27:03;9.20;89.50
57566;DHT22;63999;43.882;-0.310;2024-02-23T05:29:30;9.20;89.90
57566;DHT22;63999;43.882;-0.310;2024-02-23T05:31:57;9.20;89.90
57566;DHT22;63999;43.882;-0.310;2024-02-23T05:34:24;9.30;90.00
57566;DHT22;63999;43.882;-0.310;2024-02-23T05:36:52;9.30;90.40
57566;DHT22;63999;43.882;-0.310;2024-02-23T05:39:19;9.30;90.10
57566;DHT22;63999;43.882;-0.310;2024-02-23T05:41:46;9.30;90.20
57566;DHT22;63999;43.882;-0.310;2024-02-23T05:44:14;9.30;90.30
57566;DHT22;63999;43.882;-0.310;2024-02-23T05:46:43;9.30;90.60
57566;DHT22;63999;43.882;-0.310;2024-02-23T05:49:12;9.30;90.40
57566;DHT22;63999;43.882;-0.310;2024-02-23T05:51:39;9.40;90.20
57566;DHT22;63999;43.882;-0.310;2024-02-23T05:54:06;9.30;90.40
57566;DHT22;63999;43.882;-0.310;2024-02-23T05:56:33;9.30;89.70
57566;DHT22;63999;43.882;-0.310;2024-02-23T05:59:01;9.20;90.10
57566;DHT22;63999;43.882;-0.310;2024-02-23T06:01:28;9.20;90.10
57566;DHT22;63999;43.882;-0.310;2024-02-23T06:03:55;9.20;90.00
57566;DHT22;63999;43.882;-0.310;2024-02-23T06:06:22;9.20;89.80
57566;DHT22;63999;43.882;-0.310;2024-02-23T06:08:50;9.10;89.60
57566;DHT22;63999;43.882;-0.310;2024-02-23T06:11:18;9.00;89.70
57566;DHT22;63999;43.882;-0.310;2024-02-23T06:13:45;9.00;90.00
57566;DHT22;63999;43.882;-0.310;2024-02-23T06:16:12;9.00;89.80
57566;DHT22;63999;43.882;-0.310;2024-02-23T06:18:40;9.00;90.00
57566;DHT22;63999;43.882;-0.310;2024-02-23T06:21:15;9.10;90.10
57566;DHT22;63999;43.882;-0.310;2024-02-23T06:23:43;9.20;90.70
57566;DHT22;63999;43.882;-0.310;2024-02-23T06:26:10;9.20;90.20
57566;DHT22;63999;43.882;-0.310;2024-02-23T06:28:39;9.20;90.00
57566;DHT22;63999;43.882;-0.310;2024-02-23T06:31:09;9.20;90.40
57566;DHT22;63999;43.882;-0.310;2024-02-23T06:33:36;9.20;90.20
57566;DHT22;63999;43.882;-0.310;2024-02-23T06:36:04;9.20;90.10
57566;DHT22;63999;43.882;-0.310;2024-02-23T06:38:31;9.20;90.10
57566;DHT22;63999;43.882;-0.310;2024-02-23T06:40:59;9.20;90.10
57566;DHT22;63999;43.882;-0.310;2024-02-23T06:43:26;9.10;90.00
57566;DHT22;63999;43.882;-0.310;2024-02-23T06:45:53;9.10;90.10
57566;DHT22;63999;43.882;-0.310;2024-02-23T06:48:20;9.10;90.60
57566;DHT22;63999;43.882;-0.310;2024-02-23T06:50:48;9.20;90.60
57566;DHT22;63999;43.882;-0.310;2024-02-23T06:53:16;9.20;90.60
57566;DHT22;63999;43.882;-0.310;2024-02-23T06:55:43;9.20;90.60
57566;DHT22;63999;43.882;-0.310;2024-02-23T06:58:10;9.20;90.50
57566;DHT22;63999;43.882;-0.310;2024-02-23T07:00:40;9.20;90.50
57566;DHT22;63999;43.882;-0.310;2024-02-23T07:03:08;9.20;90.60
57566;DHT22;63999;43.882;-0.310;2024-02-23T07:05:35;9.20;90.50
57566;DHT22;63999;43.882;-0.310;2024-02-23T07:08:03;9.20;90.40
57566;DHT22;63999;43.882;-0.310;2024-02-23T07:10:31;9.20;90.50
57566;DHT22;63999;43.882;-0.310;2024-02-23T07:12:58;9.20;90.40
57566;DHT22;63999;43.882;-0.310;2024-02-23T07:15:26;9.10;90.40
57566;DHT22;63999;43.882;-0.310;2024-02-23T07:17:53;9.10;90.60
57566;DHT22;63999;43.882;-0.310;2024-02-23T07:20:20;9.20;90.70
57566;DHT22;63999;43.882;-0.310;2024-02-23T07:22:47;9.20;90.60
57566;DHT22;63999;43.882;-0.310;2024-02-23T07:25:18;9.20;90.60
57566;DHT22;63999;43.882;-0.310;2024-02-23T07:27:48;9.20;90.50
57566;DHT22;63999;43.882;-0.310;2024-02-23T07:30:18;9.10;90.40
57566;DHT22;63999;43.882;-0.310;2024-02-23T07:32:45;9.10;90.50
57566;DHT22;63999;43.882;-0.310;2024-02-23T07:35:19;9.20;90.50
57566;DHT22;63999;43.882;-0.310;2024-02-23T07:37:47;9.10;90.50
57566;DHT22;63999;43.882;-0.310;2024-02-23T07:40:14;9.10;90.40
57566;DHT22;63999;43.882;-0.310;2024-02-23T07:42:45;9.10;90.50
57566;DHT22;63999;43.882;-0.310;2024-02-23T07:45:12;9.10;90.40
57566;DHT22;63999;43.882;-0.310;2024-02-23T07:47:40;9.10;90.50
57566;DHT22;63999;43.882;-0.310;2024-02-23T07:50:07;9.00;90.50
57566;DHT22;63999;43.882;-0.310;2024-02-23T07:52:35;9.00;90.50
57566;DHT22;63999;43.882;-0.310;2024-02-23T07:55:03;9.00;90.50
57566;DHT22;63999;43.882;-0.310;2024-02-23T07:57:32;9.00;90.40
57566;DHT22;63999;43.882;-0.310;2024-02-23T08:00:00;9.00;90.40
57566;DHT22;63999;43.882;-0.310;2024-02-23T08:02:27;9.00;90.40
57566;DHT22;63999;43.882;-0.310;2024-02-23T08:04:55;9.00;90.30
57566;DHT22;63999;43.882;-0.310;2024-02-23T08:07:22;9.00;90.40
57566;DHT22;63999;43.882;-0.310;2024-02-23T08:09:50;9.00;90.50
57566;DHT22;63999;43.882;-0.310;2024-02-23T08:12:17;9.00;90.40
57566;DHT22;63999;43.882;-0.310;2024-02-23T08:14:45;9.00;90.40
57566;DHT22;63999;43.882;-0.310;2024-02-23T08:17:13;9.00;90.40
57566;DHT22;63999;43.882;-0.310;2024-02-23T08:19:45;9.00;90.30
57566;DHT22;63999;43.882;-0.310;2024-02-23T08:22:13;9.00;90.40
57566;DHT22;63999;43.882;-0.310;2024-02-23T08:24:43;9.00;90.50
57566;DHT22;63999;43.882;-0.310;2024-02-23T08:27:10;8.90;90.30
57566;DHT22;63999;43.882;-0.310;2024-02-23T08:29:40;8.90;90.50
57566;DHT22;63999;43.882;-0.310;2024-02-23T08:32:08;8.90;90.30
57566;DHT22;63999;43.882;-0.310;2024-02-23T08:34:39;8.90;90.20
57566;DHT22;63999;43.882;-0.310;2024-02-23T08:37:06;8.80;90.20
57566;DHT22;63999;43.882;-0.310;2024-02-23T08:39:34;8.80;90.10
57566;DHT22;63999;43.882;-0.310;2024-02-23T08:42:04;8.70;90.20
57566;DHT22;63999;43.882;-0.310;2024-02-23T08:44:32;8.70;90.10
57566;DHT22;63999;43.882;-0.310;2024-02-23T08:46:59;8.70;90.20
57566;DHT22;63999;43.882;-0.310;2024-02-23T08:49:27;8.60;90.10
57566;DHT22;63999;43.882;-0.310;2024-02-23T08:51:55;8.60;90.10
57566;DHT22;63999;43.882;-0.310;2024-02-23T08:54:25;8.70;90.20
57566;DHT22;63999;43.882;-0.310;2024-02-23T08:56:52;8.60;90.10
57566;DHT22;63999;43.882;-0.310;2024-02-23T08:59:19;8.60;90.10
57566;DHT22;63999;43.882;-0.310;2024-02-23T09:01:46;8.70;90.30
57566;DHT22;63999;43.882;-0.310;2024-02-23T09:04:14;8.70;90.20
57566;DHT22;63999;43.882;-0.310;2024-02-23T09:06:41;8.70;90.20
57566;DHT22;63999;43.882;-0.310;2024-02-23T09:09:08;8.70;90.40
57566;DHT22;63999;43.882;-0.310;2024-02-23T09:11:39;8.70;90.50
57566;DHT22;63999;43.882;-0.310;2024-02-23T09:14:08;8.80;90.80
57566;DHT22;63999;43.882;-0.310;2024-02-23T09:16:39;8.80;90.70
57566;DHT22;63999;43.882;-0.310;2024-02-23T09:19:06;8.80;90.40
57566;DHT22;63999;43.882;-0.310;2024-02-23T09:21:34;8.70;90.30
57566;DHT22;63999;43.882;-0.310;2024-02-23T09:24:01;8.60;90.30
57566;DHT22;63999;43.882;-0.310;2024-02-23T09:26:28;8.60;90.30
57566;DHT22;63999;43.882;-0.310;2024-02-23T09:28:55;8.60;90.30
57566;DHT22;63999;43.882;-0.310;2024-02-23T09:31:23;8.60;90.30
57566;DHT22;63999;43.882;-0.310;2024-02-23T09:33:50;8.60;90.30
57566;DHT22;63999;43.882;-0.310;2024-02-23T09:36:18;8.60;90.40
57566;DHT22;63999;43.882;-0.310;2024-02-23T09:38:45;8.60;90.40
57566;DHT22;63999;43.882;-0.310;2024-02-23T09:41:22;8.60;90.30
57566;DHT22;63999;43.882;-0.310;2024-02-23T09:43:50;8.60;90.00
57566;DHT22;63999;43.882;-0.310;2024-02-23T09:46:19;8.50;90.30
57566;DHT22;63999;43.882;-0.310;2024-02-23T09:48:47;8.50;90.30
57566;DHT22;63999;43.882;-0.310;2024-02-23T09:51:15;8.50;90.30
57566;DHT22;63999;43.882;-0.310;2024-02-23T09:53:43;8.50;90.50
57566;DHT22;63999;43.882;-0.310;2024-02-23T09:56:11;8.60;90.50
57566;DHT22;63999;43.882;-0.310;2024-02-23T09:58:39;8.60;90.70
57566;DHT22;63999;43.882;-0.310;2024-02-23T10:01:08;8.60;90.60
57566;DHT22;63999;43.882;-0.310;2024-02-23T10:03:39;8.60;90.70
57566;DHT22;63999;43.882;-0.310;2024-02-23T10:06:09;8.60;90.80
57566;DHT22;63999;43.882;-0.310;2024-02-23T10:08:36;8.60;90.90
57566;DHT22;63999;43.882;-0.310;2024-02-23T10:11:03;8.60;91.20
57566;DHT22;63999;43.882;-0.310;2024-02-23T10:13:32;8.70;91.60
57566;DHT22;63999;43.882;-0.310;2024-02-23T10:15:59;8.80;91.10
57566;DHT22;63999;43.882;-0.310;2024-02-23T10:18:41;8.80;91.20
57566;DHT22;63999;43.882;-0.310;2024-02-23T10:21:08;8.80;91.20
57566;DHT22;63999;43.882;-0.310;2024-02-23T10:23:36;8.80;91.20
57566;DHT22;63999;43.882;-0.310;2024-02-23T10:26:08;8.80;91.00
57566;DHT22;63999;43.882;-0.310;2024-02-23T10:28:37;8.80;91.00
57566;DHT22;63999;43.882;-0.310;2024-02-23T10:31:07;8.70;91.20
57566;DHT22;63999;43.882;-0.310;2024-02-23T10:33:40;8.80;91.20
57566;DHT22;63999;43.882;-0.310;2024-02-23T10:36:07;8.80;91.20
57566;DHT22;63999;43.882;-0.310;2024-02-23T10:38:38;8.80;91.30
57566;DHT22;63999;43.882;-0.310;2024-02-23T10:41:07;8.80;91.30
57566;DHT22;63999;43.882;-0.310;2024-02-23T10:43:45;8.80;91.60
57566;DHT22;63999;43.882;-0.310;2024-02-23T10:46:14;8.80;91.60
57566;DHT22;63999;43.882;-0.310;2024-02-23T10:48:43;8.90;91.30
57566;DHT22;63999;43.882;-0.310;2024-02-23T10:51:14;8.80;91.50
57566;DHT22;63999;43.882;-0.310;2024-02-23T10:53:48;8.80;91.70
57566;DHT22;63999;43.882;-0.310;2024-02-23T10:56:15;8.90;91.50
57566;DHT22;63999;43.882;-0.310;2024-02-23T10:58:43;8.90;91.50
57566;DHT22;63999;43.882;-0.310;2024-02-23T11:01:12;8.90;91.40
57566;DHT22;63999;43.882;-0.310;2024-02-23T11:03:43;8.90;91.40
57566;DHT22;63999;43.882;-0.310;2024-02-23T11:06:16;8.80;91.30
57566;DHT22;63999;43.882;-0.310;2024-02-23T11:08:50;8.80;91.40
57566;DHT22;63999;43.882;-0.310;2024-02-23T11:11:18;8.80;91.30
57566;DHT22;63999;43.882;-0.310;2024-02-23T11:13:46;8.80;91.10
57566;DHT22;63999;43.882;-0.310;2024-02-23T11:16:22;8.80;91.20
57566;DHT22;63999;43.882;-0.310;2024-02-23T11:19:04;8.80;91.30
57566;DHT22;63999;43.882;-0.310;2024-02-23T11:21:36;8.80;91.20
57566;DHT22;63999;43.882;-0.310;2024-02-23T11:24:05;8.80;91.20
57566;DHT22;63999;43.882;-0.310;2024-02-23T11:26:32;8.80;91.10
57566;DHT22;63999;43.882;-0.310;2024-02-23T11:29:12;8.80;91.30
57566;DHT22;63999;43.882;-0.310;2024-02-23T11:31:46;8.80;91.30
57566;DHT22;63999;43.882;-0.310;2024-02-23T11:34:13;8.80;91.40
57566;DHT22;63999;43.882;-0.310;2024-02-23T11:36:51;8.80;91.30
57566;DHT22;63999;43.882;-0.310;2024-02-23T11:39:20;8.80;91.10
57566;DHT22;63999;43.882;-0.310;2024-02-23T11:41:49;8.70;91.10
57566;DHT22;63999;43.882;-0.310;2024-02-23T11:44:17;8.60;91.10
57566;DHT22;63999;43.882;-0.310;2024-02-23T11:46:46;8.60;91.00
57566;DHT22;63999;43.882;-0.310;2024-02-23T11:49:14;8.60;91.10
57566;DHT22;63999;43.882;-0.310;2024-02-23T11:51:43;8.60;91.00
57566;DHT22;63999;43.882;-0.310;2024-02-23T11:54:15;8.60;90.90
57566;DHT22;63999;43.882;-0.310;2024-02-23T11:56:42;8.60;90.90
57566;DHT22;63999;43.882;-0.310;2024-02-23T11:59:10;8.50;91.00
57566;DHT22;63999;43.882;-0.310;2024-02-23T12:01:37;8.50;90.90
57566;DHT22;63999;43.882;-0.310;2024-02-23T12:04:05;8.50;90.90
57566;DHT22;63999;43.882;-0.310;2024-02-23T12:06:33;8.50;90.90
57566;DHT22;63999;43.882;-0.310;2024-02-23T12:09:01;8.50;90.80
57566;DHT22;63999;43.882;-0.310;2024-02-23T12:11:29;8.40;90.80
57566;DHT22;63999;43.882;-0.310;2024-02-23T12:13:57;8.40;90.80
57566;DHT22;63999;43.882;-0.310;2024-02-23T12:16:26;8.40;90.80
57566;DHT22;63999;43.882;-0.310;2024-02-23T12:18:54;8.40;90.90
57566;DHT22;63999;43.882;-0.310;2024-02-23T12:21:25;8.40;90.80
57566;DHT22;63999;43.882;-0.310;2024-02-23T12:23:53;8.40;90.90
57566;DHT22;63999;43.882;-0.310;2024-02-23T12:26:20;8.40;90.80
57566;DHT22;63999;43.882;-0.310;2024-02-23T12:28:48;8.40;90.80
57566;DHT22;63999;43.882;-0.310;2024-02-23T12:31:15;8.40;90.80
57566;DHT22;63999;43.882;-0.310;2024-02-23T12:33:43;8.40;90.80
57566;DHT22;63999;43.882;-0.310;2024-02-23T12:36:15;8.40;90.80
57566;DHT22;63999;43.882;-0.310;2024-02-23T12:38:42;8.40;90.80
57566;DHT22;63999;43.882;-0.310;2024-02-23T12:41:12;8.40;90.80
57566;DHT22;63999;43.882;-0.310;2024-02-23T12:43:40;8.40;90.80
57566;DHT22;63999;43.882;-0.310;2024-02-23T12:46:10;8.40;90.90
57566;DHT22;63999;43.882;-0.310;2024-02-23T12:48:41;8.40;91.00
57566;DHT22;63999;43.882;-0.310;2024-02-23T12:51:10;8.40;91.00
57566;DHT22;63999;43.882;-0.310;2024-02-23T12:53:38;8.40;91.10
57566;DHT22;63999;43.882;-0.310;2024-02-23T12:56:08;8.40;91.00
57566;DHT22;63999;43.882;-0.310;2024-02-23T12:58:40;8.40;91.00
57566;DHT22;63999;43.882;-0.310;2024-02-23T13:01:08;8.40;90.90
57566;DHT22;63999;43.882;-0.310;2024-02-23T13:03:36;8.40;91.00
57566;DHT22;63999;43.882;-0.310;2024-02-23T13:06:05;8.50;91.40
57566;DHT22;63999;43.882;-0.310;2024-02-23T13:08:32;8.50;91.30
57566;DHT22;63999;43.882;-0.310;2024-02-23T13:11:00;8.50;91.30
57566;DHT22;63999;43.882;-0.310;2024-02-23T13:13:28;8.50;91.40
57566;DHT22;63999;43.882;-0.310;2024-02-23T13:15:55;8.50;91.30
57566;DHT22;63999;43.882;-0.310;2024-02-23T13:18:24;8.50;91.50
57566;DHT22;63999;43.882;-0.310;2024-02-23T13:20:51;8.50;91.60
57566;DHT22;63999;43.882;-0.310;2024-02-23T13:23:18;8.50;91.40
57566;DHT22;63999;43.882;-0.310;2024-02-23T13:25:45;8.50;91.60
57566;DHT22;63999;43.882;-0.310;2024-02-23T13:28:13;8.60;91.50
57566;DHT22;63999;43.882;-0.310;2024-02-23T13:30:41;8.50;91.50
57566;DHT22;63999;43.882;-0.310;2024-02-23T13:33:08;8.50;91.50
57566;DHT22;63999;43.882;-0.310;2024-02-23T13:35:38;8.50;91.40
57566;DHT22;63999;43.882;-0.310;2024-02-23T13:38:07;8.50;91.50
57566;DHT22;63999;43.882;-0.310;2024-02-23T13:40:36;8.50;91.50
57566;DHT22;63999;43.882;-0.310;2024-02-23T13:43:03;8.50;91.50
57566;DHT22;63999;43.882;-0.310;2024-02-23T13:45:31;8.50;91.70
57566;DHT22;63999;43.882;-0.310;2024-02-23T13:48:02;8.50;91.70
57566;DHT22;63999;43.882;-0.310;2024-02-23T13:50:32;8.50;91.80
57566;DHT22;63999;43.882;-0.310;2024-02-23T13:53:06;8.50;91.70
57566;DHT22;63999;43.882;-0.310;2024-02-23T13:55:34;8.60;91.60
57566;DHT22;63999;43.882;-0.310;2024-02-23T13:58:01;8.50;91.70
57566;DHT22;63999;43.882;-0.310;2024-02-23T14:00:29;8.60;91.80
57566;DHT22;63999;43.882;-0.310;2024-02-23T14:02:56;8.60;91.80
57566;DHT22;63999;43.882;-0.310;2024-02-23T14:05:23;8.60;91.80
57566;DHT22;63999;43.882;-0.310;2024-02-23T14:07:52;8.60;91.70
57566;DHT22;63999;43.882;-0.310;2024-02-23T14:10:22;8.60;91.70
57566;DHT22;63999;43.882;-0.310;2024-02-23T14:12:50;8.60;91.80
57566;DHT22;63999;43.882;-0.310;2024-02-23T14:15:17;8.60;92.00
57566;DHT22;63999;43.882;-0.310;2024-02-23T14:17:45;8.60;91.90
57566;DHT22;63999;43.882;-0.310;2024-02-23T14:20:12;8.60;91.90
57566;DHT22;63999;43.882;-0.310;2024-02-23T14:22:39;8.60;91.80
57566;DHT22;63999;43.882;-0.310;2024-02-23T14:25:07;8.60;91.80
57566;DHT22;63999;43.882;-0.310;2024-02-23T14:27:34;8.60;91.90
57566;DHT22;63999;43.882;-0.310;2024-02-23T14:30:02;8.60;91.80
57566;DHT22;63999;43.882;-0.310;2024-02-23T14:32:29;8.60;91.80
57566;DHT22;63999;43.882;-0.310;2024-02-23T14:34:56;8.60;91.80
57566;DHT22;63999;43.882;-0.310;2024-02-23T14:37:24;8.60;91.90
57566;DHT22;63999;43.882;-0.310;2024-02-23T14:39:52;8.60;92.30
57566;DHT22;63999;43.882;-0.310;2024-02-23T14:42:19;8.60;92.60
57566;DHT22;63999;43.882;-0.310;2024-02-23T14:44:46;8.60;92.50
57566;DHT22;63999;43.882;-0.310;2024-02-23T14:47:13;8.60;92.10
57566;DHT22;63999;43.882;-0.310;2024-02-23T14:49:40;8.60;92.10
57566;DHT22;63999;43.882;-0.310;2024-02-23T14:52:08;8.60;92.00
57566;DHT22;63999;43.882;-0.310;2024-02-23T14:54:35;8.60;92.10
57566;DHT22;63999;43.882;-0.310;2024-02-23T14:57:05;8.60;92.20
57566;DHT22;63999;43.882;-0.310;2024-02-23T14:59:32;8.60;92.10
57566;DHT22;63999;43.882;-0.310;2024-02-23T15:02:06;8.60;92.20
57566;DHT22;63999;43.882;-0.310;2024-02-23T15:04:34;8.60;92.60
57566;DHT22;63999;43.882;-0.310;2024-02-23T15:07:01;8.60;92.40
57566;DHT22;63999;43.882;-0.310;2024-02-23T15:09:29;8.60;92.40
57566;DHT22;63999;43.882;-0.310;2024-02-23T15:11:56;8.60;92.50
57566;DHT22;63999;43.882;-0.310;2024-02-23T15:14:24;8.60;92.50
57566;DHT22;63999;43.882;-0.310;2024-02-23T15:16:51;8.60;92.50
57566;DHT22;63999;43.882;-0.310;2024-02-23T15:19:18;8.60;92.50
57566;DHT22;63999;43.882;-0.310;2024-02-23T15:21:45;8.70;92.50
57566;DHT22;63999;43.882;-0.310;2024-02-23T15:24:13;8.70;92.50
57566;DHT22;63999;43.882;-0.310;2024-02-23T15:26:40;8.70;92.70
57566;DHT22;63999;43.882;-0.310;2024-02-23T15:29:08;8.70;92.70
57566;DHT22;63999;43.882;-0.310;2024-02-23T15:31:36;8.70;93.20
57566;DHT22;63999;43.882;-0.310;2024-02-23T15:34:07;8.70;92.70
57566;DHT22;63999;43.882;-0.310;2024-02-23T15:36:35;8.70;92.50